sensor_id;sensor_type;location;lat;lon;timestamp;P1;durP1;ratioP1;P2;durP2;ratioP2
42244;SDS011;27912;51.828;5.688;2023-11-21T00:01:16;43.65;;;17.27;;
42244;SDS011;27912;51.828;5.688;2023-11-21T00:03:42;40.72;;;16.75;;
42244;SDS011;27912;51.828;5.688;2023-11-21T00:06:08;30.70;;;15.98;;
42244;SDS011;27912;51.828;5.688;2023-11-21T00:08:33;35.78;;;16.95;;
42244;SDS011;27912;51.828;5.688;2023-11-21T00:11:02;35.88;;;16.58;;
42244;SDS011;27912;51.828;5.688;2023-11-21T00:13:30;32.42;;;15.50;;
42244;SDS011;27912;51.828;5.688;2023-11-21T00:15:56;33.55;;;15.57;;
42244;SDS011;27912;51.828;5.688;2023-11-21T00:18:21;39.13;;;16.20;;
42244;SDS011;27912;51.828;5.688;2023-11-21T00:20:47;38.17;;;16.92;;
42244;SDS011;27912;51.828;5.688;2023-11-21T00:23:13;38.15;;;18.30;;
42244;SDS011;27912;51.828;5.688;2023-11-21T00:25:38;42.00;;;18.23;;
42244;SDS011;27912;51.828;5.688;2023-11-21T00:28:05;43.55;;;18.30;;
42244;SDS011;27912;51.828;5.688;2023-11-21T00:30:30;48.83;;;20.17;;
42244;SDS011;27912;51.828;5.688;2023-11-21T00:32:56;49.58;;;19.92;;
42244;SDS011;27912;51.828;5.688;2023-11-21T00:35:22;43.95;;;20.23;;
42244;SDS011;27912;51.828;5.688;2023-11-21T00:37:47;54.17;;;21.15;;
42244;SDS011;27912;51.828;5.688;2023-11-21T00:40:14;49.20;;;21.52;;
42244;SDS011;27912;51.828;5.688;2023-11-21T00:42:41;45.20;;;20.75;;
42244;SDS011;27912;51.828;5.688;2023-11-21T00:45:07;52.47;;;21.33;;
42244;SDS011;27912;51.828;5.688;2023-11-21T00:47:33;54.30;;;21.70;;
42244;SDS011;27912;51.828;5.688;2023-11-21T00:49:58;56.45;;;22.80;;
42244;SDS011;27912;51.828;5.688;2023-11-21T00:52:24;57.30;;;23.67;;
42244;SDS011;27912;51.828;5.688;2023-11-21T00:54:50;59.33;;;23.13;;
42244;SDS011;27912;51.828;5.688;2023-11-21T00:57:15;62.03;;;24.35;;
42244;SDS011;27912;51.828;5.688;2023-11-21T00:59:41;56.70;;;24.77;;
42244;SDS011;27912;51.828;5.688;2023-11-21T01:02:06;59.17;;;23.45;;
42244;SDS011;27912;51.828;5.688;2023-11-21T01:04:35;60.88;;;24.52;;
42244;SDS011;27912;51.828;5.688;2023-11-21T01:07:00;59.95;;;23.55;;
42244;SDS011;27912;51.828;5.688;2023-11-21T01:09:26;62.15;;;25.65;;
42244;SDS011;27912;51.828;5.688;2023-11-21T01:11:53;68.53;;;26.10;;
42244;SDS011;27912;51.828;5.688;2023-11-21T01:14:18;57.60;;;24.35;;
42244;SDS011;27912;51.828;5.688;2023-11-21T01:16:44;61.65;;;25.98;;
42244;SDS011;27912;51.828;5.688;2023-11-21T01:19:09;63.97;;;25.67;;
42244;SDS011;27912;51.828;5.688;2023-11-21T01:21:35;74.53;;;27.90;;
42244;SDS011;27912;51.828;5.688;2023-11-21T01:24:01;70.85;;;27.40;;
42244;SDS011;27912;51.828;5.688;2023-11-21T01:26:27;61.75;;;25.30;;
42244;SDS011;27912;51.828;5.688;2023-11-21T01:28:53;62.45;;;25.50;;
42244;SDS011;27912;51.828;5.688;2023-11-21T01:31:19;65.65;;;26.48;;
42244;SDS011;27912;51.828;5.688;2023-11-21T01:33:45;78.13;;;26.77;;
42244;SDS011;27912;51.828;5.688;2023-11-21T01:36:11;62.90;;;26.00;;
42244;SDS011;27912;51.828;5.688;2023-11-21T01:38:36;72.32;;;27.58;;
42244;SDS011;27912;51.828;5.688;2023-11-21T01:41:02;73.47;;;29.08;;
42244;SDS011;27912;51.828;5.688;2023-11-21T01:43:27;76.28;;;27.63;;
42244;SDS011;27912;51.828;5.688;2023-11-21T01:45:55;70.15;;;26.75;;
42244;SDS011;27912;51.828;5.688;2023-11-21T01:48:24;72.43;;;26.75;;
42244;SDS011;27912;51.828;5.688;2023-11-21T01:50:50;74.28;;;26.23;;
42244;SDS011;27912;51.828;5.688;2023-11-21T01:53:16;91.95;;;26.60;;
42244;SDS011;27912;51.828;5.688;2023-11-21T01:55:41;138.40;;;30.92;;
42244;SDS011;27912;51.828;5.688;2023-11-21T01:58:08;96.45;;;26.70;;
42244;SDS011;27912;51.828;5.688;2023-11-21T02:00:35;101.05;;;28.27;;
42244;SDS011;27912;51.828;5.688;2023-11-21T02:03:00;96.68;;;27.40;;
42244;SDS011;27912;51.828;5.688;2023-11-21T02:05:26;131.63;;;28.95;;
42244;SDS011;27912;51.828;5.688;2023-11-21T02:07:51;78.38;;;24.77;;
42244;SDS011;27912;51.828;5.688;2023-11-21T02:10:17;154.05;;;27.67;;
42244;SDS011;27912;51.828;5.688;2023-11-21T02:12:47;123.22;;;27.88;;
42244;SDS011;27912;51.828;5.688;2023-11-21T02:15:16;151.40;;;28.55;;
42244;SDS011;27912;51.828;5.688;2023-11-21T02:17:46;140.88;;;27.42;;
42244;SDS011;27912;51.828;5.688;2023-11-21T02:20:12;120.70;;;26.48;;
42244;SDS011;27912;51.828;5.688;2023-11-21T02:22:42;106.47;;;26.65;;
42244;SDS011;27912;51.828;5.688;2023-11-21T02:25:27;99.97;;;24.73;;
42244;SDS011;27912;51.828;5.688;2023-11-21T02:27:55;190.38;;;29.77;;
42244;SDS011;27912;51.828;5.688;2023-11-21T02:30:25;137.43;;;30.23;;
42244;SDS011;27912;51.828;5.688;2023-11-21T02:32:52;103.55;;;25.90;;
42244;SDS011;27912;51.828;5.688;2023-11-21T02:35:18;109.20;;;25.65;;
42244;SDS011;27912;51.828;5.688;2023-11-21T02:37:48;112.40;;;25.00;;
42244;SDS011;27912;51.828;5.688;2023-11-21T02:40:14;192.63;;;29.17;;
42244;SDS011;27912;51.828;5.688;2023-11-21T02:42:43;157.63;;;28.52;;
42244;SDS011;27912;51.828;5.688;2023-11-21T02:45:09;195.52;;;28.38;;
42244;SDS011;27912;51.828;5.688;2023-11-21T02:47:37;108.20;;;27.35;;
42244;SDS011;27912;51.828;5.688;2023-11-21T02:50:03;102.70;;;25.25;;
42244;SDS011;27912;51.828;5.688;2023-11-21T02:52:31;116.65;;;25.58;;
42244;SDS011;27912;51.828;5.688;2023-11-21T02:54:58;115.15;;;25.42;;
42244;SDS011;27912;51.828;5.688;2023-11-21T02:57:23;106.75;;;26.30;;
42244;SDS011;27912;51.828;5.688;2023-11-21T02:59:49;87.43;;;26.48;;
42244;SDS011;27912;51.828;5.688;2023-11-21T03:02:15;96.80;;;25.77;;
42244;SDS011;27912;51.828;5.688;2023-11-21T03:04:41;219.77;;;29.98;;
42244;SDS011;27912;51.828;5.688;2023-11-21T03:07:07;144.73;;;29.10;;
42244;SDS011;27912;51.828;5.688;2023-11-21T03:09:34;115.22;;;26.45;;
42244;SDS011;27912;51.828;5.688;2023-11-21T03:12:00;125.85;;;29.35;;
42244;SDS011;27912;51.828;5.688;2023-11-21T03:14:25;142.40;;;30.40;;
42244;SDS011;27912;51.828;5.688;2023-11-21T03:16:51;159.52;;;29.52;;
42244;SDS011;27912;51.828;5.688;2023-11-21T03:19:16;117.57;;;28.52;;
42244;SDS011;27912;51.828;5.688;2023-11-21T03:21:42;110.03;;;26.70;;
42244;SDS011;27912;51.828;5.688;2023-11-21T03:24:08;174.95;;;30.25;;
42244;SDS011;27912;51.828;5.688;2023-11-21T03:26:33;133.43;;;28.05;;
42244;SDS011;27912;51.828;5.688;2023-11-21T03:28:59;123.43;;;28.75;;
42244;SDS011;27912;51.828;5.688;2023-11-21T03:31:24;104.70;;;27.08;;
42244;SDS011;27912;51.828;5.688;2023-11-21T03:33:51;105.53;;;28.13;;
42244;SDS011;27912;51.828;5.688;2023-11-21T03:36:18;130.95;;;28.15;;
42244;SDS011;27912;51.828;5.688;2023-11-21T03:38:44;104.47;;;26.65;;
42244;SDS011;27912;51.828;5.688;2023-11-21T03:41:10;114.90;;;26.85;;
42244;SDS011;27912;51.828;5.688;2023-11-21T03:43:38;101.30;;;27.00;;
42244;SDS011;27912;51.828;5.688;2023-11-21T03:46:04;85.13;;;26.98;;
42244;SDS011;27912;51.828;5.688;2023-11-21T03:48:31;122.28;;;28.10;;
42244;SDS011;27912;51.828;5.688;2023-11-21T03:50:58;92.95;;;27.42;;
42244;SDS011;27912;51.828;5.688;2023-11-21T03:53:23;122.82;;;28.92;;
42244;SDS011;27912;51.828;5.688;2023-11-21T03:55:49;104.70;;;28.40;;
42244;SDS011;27912;51.828;5.688;2023-11-21T03:58:15;103.55;;;28.00;;
42244;SDS011;27912;51.828;5.688;2023-11-21T04:00:40;145.52;;;30.92;;
42244;SDS011;27912;51.828;5.688;2023-11-21T04:03:06;113.93;;;28.90;;
42244;SDS011;27912;51.828;5.688;2023-11-21T04:05:32;84.28;;;30.63;;
42244;SDS011;27912;51.828;5.688;2023-11-21T04:07:57;80.30;;;28.55;;
42244;SDS011;27912;51.828;5.688;2023-11-21T04:10:23;81.90;;;28.13;;
42244;SDS011;27912;51.828;5.688;2023-11-21T04:12:48;76.88;;;28.25;;
42244;SDS011;27912;51.828;5.688;2023-11-21T04:15:14;109.50;;;32.83;;
42244;SDS011;27912;51.828;5.688;2023-11-21T04:17:40;77.85;;;29.80;;
42244;SDS011;27912;51.828;5.688;2023-11-21T04:20:06;87.45;;;31.08;;
42244;SDS011;27912;51.828;5.688;2023-11-21T04:22:36;88.40;;;31.40;;
42244;SDS011;27912;51.828;5.688;2023-11-21T04:25:13;83.95;;;31.17;;
42244;SDS011;27912;51.828;5.688;2023-11-21T04:27:40;87.82;;;30.20;;
42244;SDS011;27912;51.828;5.688;2023-11-21T04:30:08;75.15;;;30.20;;
42244;SDS011;27912;51.828;5.688;2023-11-21T04:32:38;80.43;;;30.13;;
42244;SDS011;27912;51.828;5.688;2023-11-21T04:35:07;72.60;;;28.80;;
42244;SDS011;27912;51.828;5.688;2023-11-21T04:37:33;80.97;;;30.30;;
42244;SDS011;27912;51.828;5.688;2023-11-21T04:39:59;61.83;;;27.67;;
42244;SDS011;27912;51.828;5.688;2023-11-21T04:42:24;74.13;;;30.20;;
42244;SDS011;27912;51.828;5.688;2023-11-21T04:44:50;82.22;;;30.48;;
42244;SDS011;27912;51.828;5.688;2023-11-21T04:47:17;70.50;;;29.38;;
42244;SDS011;27912;51.828;5.688;2023-11-21T04:49:45;72.97;;;28.90;;
42244;SDS011;27912;51.828;5.688;2023-11-21T04:52:12;68.00;;;29.65;;
42244;SDS011;27912;51.828;5.688;2023-11-21T04:54:37;66.07;;;29.33;;
42244;SDS011;27912;51.828;5.688;2023-11-21T04:57:04;63.78;;;28.27;;
42244;SDS011;27912;51.828;5.688;2023-11-21T04:59:32;63.15;;;28.38;;
42244;SDS011;27912;51.828;5.688;2023-11-21T05:01:58;57.55;;;27.73;;
42244;SDS011;27912;51.828;5.688;2023-11-21T05:04:25;60.22;;;28.05;;
42244;SDS011;27912;51.828;5.688;2023-11-21T05:06:50;54.40;;;26.60;;
42244;SDS011;27912;51.828;5.688;2023-11-21T05:09:16;58.30;;;27.65;;
42244;SDS011;27912;51.828;5.688;2023-11-21T05:11:42;61.10;;;26.45;;
42244;SDS011;27912;51.828;5.688;2023-11-21T05:14:08;57.65;;;26.00;;
42244;SDS011;27912;51.828;5.688;2023-11-21T05:16:33;56.55;;;26.35;;
42244;SDS011;27912;51.828;5.688;2023-11-21T05:19:00;60.15;;;26.38;;
42244;SDS011;27912;51.828;5.688;2023-11-21T05:21:29;61.03;;;26.73;;
42244;SDS011;27912;51.828;5.688;2023-11-21T05:23:58;52.88;;;27.20;;
42244;SDS011;27912;51.828;5.688;2023-11-21T05:26:24;59.17;;;27.10;;
42244;SDS011;27912;51.828;5.688;2023-11-21T05:28:49;54.08;;;25.27;;
42244;SDS011;27912;51.828;5.688;2023-11-21T05:31:15;53.10;;;25.85;;
42244;SDS011;27912;51.828;5.688;2023-11-21T05:33:41;55.72;;;25.65;;
42244;SDS011;27912;51.828;5.688;2023-11-21T05:36:07;55.67;;;26.45;;
42244;SDS011;27912;51.828;5.688;2023-11-21T05:38:33;51.75;;;25.27;;
42244;SDS011;27912;51.828;5.688;2023-11-21T05:41:00;52.17;;;24.77;;
42244;SDS011;27912;51.828;5.688;2023-11-21T05:43:26;51.28;;;25.58;;
42244;SDS011;27912;51.828;5.688;2023-11-21T05:45:52;48.33;;;24.02;;
42244;SDS011;27912;51.828;5.688;2023-11-21T05:48:17;49.67;;;25.33;;
42244;SDS011;27912;51.828;5.688;2023-11-21T05:50:43;54.05;;;26.50;;
42244;SDS011;27912;51.828;5.688;2023-11-21T05:53:09;56.15;;;25.75;;
42244;SDS011;27912;51.828;5.688;2023-11-21T05:55:36;50.25;;;24.77;;
42244;SDS011;27912;51.828;5.688;2023-11-21T05:58:02;53.40;;;25.45;;
42244;SDS011;27912;51.828;5.688;2023-11-21T06:00:27;56.70;;;25.80;;
42244;SDS011;27912;51.828;5.688;2023-11-21T06:02:53;48.55;;;24.58;;
42244;SDS011;27912;51.828;5.688;2023-11-21T06:05:20;56.63;;;26.83;;
42244;SDS011;27912;51.828;5.688;2023-11-21T06:07:48;46.30;;;24.92;;
42244;SDS011;27912;51.828;5.688;2023-11-21T06:10:14;49.47;;;27.30;;
42244;SDS011;27912;51.828;5.688;2023-11-21T06:12:40;50.08;;;23.35;;
42244;SDS011;27912;51.828;5.688;2023-11-21T06:15:08;49.20;;;25.25;;
42244;SDS011;27912;51.828;5.688;2023-11-21T06:17:37;49.85;;;25.35;;
42244;SDS011;27912;51.828;5.688;2023-11-21T06:20:03;48.40;;;25.25;;
42244;SDS011;27912;51.828;5.688;2023-11-21T06:22:34;43.90;;;24.90;;
42244;SDS011;27912;51.828;5.688;2023-11-21T06:25:03;47.33;;;23.60;;
42244;SDS011;27912;51.828;5.688;2023-11-21T06:27:31;51.70;;;24.42;;
42244;SDS011;27912;51.828;5.688;2023-11-21T06:29:57;42.05;;;23.38;;
42244;SDS011;27912;51.828;5.688;2023-11-21T06:32:23;43.08;;;22.17;;
42244;SDS011;27912;51.828;5.688;2023-11-21T06:34:48;43.45;;;23.77;;
42244;SDS011;27912;51.828;5.688;2023-11-21T06:37:14;41.97;;;22.98;;
42244;SDS011;27912;51.828;5.688;2023-11-21T06:39:41;43.88;;;24.30;;
42244;SDS011;27912;51.828;5.688;2023-11-21T06:42:07;44.45;;;22.88;;
42244;SDS011;27912;51.828;5.688;2023-11-21T06:44:32;44.75;;;23.45;;
42244;SDS011;27912;51.828;5.688;2023-11-21T06:46:58;41.78;;;22.27;;
42244;SDS011;27912;51.828;5.688;2023-11-21T06:49:24;42.30;;;23.13;;
42244;SDS011;27912;51.828;5.688;2023-11-21T06:51:50;40.92;;;21.77;;
42244;SDS011;27912;51.828;5.688;2023-11-21T06:54:16;38.28;;;22.30;;
42244;SDS011;27912;51.828;5.688;2023-11-21T06:56:43;40.97;;;21.05;;
42244;SDS011;27912;51.828;5.688;2023-11-21T06:59:08;41.95;;;22.10;;
42244;SDS011;27912;51.828;5.688;2023-11-21T07:01:35;35.78;;;21.58;;
42244;SDS011;27912;51.828;5.688;2023-11-21T07:04:04;42.72;;;21.65;;
42244;SDS011;27912;51.828;5.688;2023-11-21T07:06:31;40.70;;;22.23;;
42244;SDS011;27912;51.828;5.688;2023-11-21T07:08:56;39.97;;;21.77;;
42244;SDS011;27912;51.828;5.688;2023-11-21T07:11:22;41.35;;;21.98;;
42244;SDS011;27912;51.828;5.688;2023-11-21T07:13:47;45.42;;;23.40;;
42244;SDS011;27912;51.828;5.688;2023-11-21T07:16:13;39.17;;;21.40;;
42244;SDS011;27912;51.828;5.688;2023-11-21T07:18:40;41.85;;;22.20;;
42244;SDS011;27912;51.828;5.688;2023-11-21T07:21:06;40.15;;;22.38;;
42244;SDS011;27912;51.828;5.688;2023-11-21T07:23:33;47.15;;;21.95;;
42244;SDS011;27912;51.828;5.688;2023-11-21T07:25:59;38.33;;;21.10;;
42244;SDS011;27912;51.828;5.688;2023-11-21T07:28:24;48.70;;;23.58;;
42244;SDS011;27912;51.828;5.688;2023-11-21T07:30:50;39.75;;;21.85;;
42244;SDS011;27912;51.828;5.688;2023-11-21T07:33:17;44.88;;;22.42;;
42244;SDS011;27912;51.828;5.688;2023-11-21T07:35:43;41.50;;;22.20;;
42244;SDS011;27912;51.828;5.688;2023-11-21T07:38:08;46.83;;;22.95;;
42244;SDS011;27912;51.828;5.688;2023-11-21T07:40:34;43.75;;;22.90;;
42244;SDS011;27912;51.828;5.688;2023-11-21T07:42:59;41.00;;;22.17;;
42244;SDS011;27912;51.828;5.688;2023-11-21T07:45:25;40.58;;;22.17;;
42244;SDS011;27912;51.828;5.688;2023-11-21T07:47:54;43.35;;;22.77;;
42244;SDS011;27912;51.828;5.688;2023-11-21T07:50:20;41.20;;;22.30;;
42244;SDS011;27912;51.828;5.688;2023-11-21T07:52:47;45.67;;;23.85;;
42244;SDS011;27912;51.828;5.688;2023-11-21T07:55:14;50.70;;;23.95;;
42244;SDS011;27912;51.828;5.688;2023-11-21T07:57:40;53.47;;;24.67;;
42244;SDS011;27912;51.828;5.688;2023-11-21T08:00:06;52.40;;;25.67;;
42244;SDS011;27912;51.828;5.688;2023-11-21T08:02:34;46.33;;;24.05;;
42244;SDS011;27912;51.828;5.688;2023-11-21T08:04:59;48.65;;;23.15;;
42244;SDS011;27912;51.828;5.688;2023-11-21T08:07:25;44.10;;;22.50;;
42244;SDS011;27912;51.828;5.688;2023-11-21T08:09:51;43.10;;;23.20;;
42244;SDS011;27912;51.828;5.688;2023-11-21T08:12:17;48.05;;;24.80;;
42244;SDS011;27912;51.828;5.688;2023-11-21T08:14:43;48.78;;;24.23;;
42244;SDS011;27912;51.828;5.688;2023-11-21T08:17:09;49.15;;;23.50;;
42244;SDS011;27912;51.828;5.688;2023-11-21T08:19:35;49.20;;;24.63;;
42244;SDS011;27912;51.828;5.688;2023-11-21T08:22:01;52.05;;;23.88;;
42244;SDS011;27912;51.828;5.688;2023-11-21T08:24:28;48.40;;;24.27;;
42244;SDS011;27912;51.828;5.688;2023-11-21T08:26:53;50.47;;;24.77;;
42244;SDS011;27912;51.828;5.688;2023-11-21T08:29:19;57.97;;;26.25;;
42244;SDS011;27912;51.828;5.688;2023-11-21T08:31:45;49.22;;;25.88;;
42244;SDS011;27912;51.828;5.688;2023-11-21T08:34:12;53.22;;;25.42;;
42244;SDS011;27912;51.828;5.688;2023-11-21T08:36:42;49.90;;;23.65;;
42244;SDS011;27912;51.828;5.688;2023-11-21T08:39:08;62.03;;;25.58;;
42244;SDS011;27912;51.828;5.688;2023-11-21T08:41:34;51.15;;;24.33;;
42244;SDS011;27912;51.828;5.688;2023-11-21T08:44:01;60.85;;;25.27;;
42244;SDS011;27912;51.828;5.688;2023-11-21T08:46:30;54.45;;;24.45;;
42244;SDS011;27912;51.828;5.688;2023-11-21T08:48:56;61.10;;;26.20;;
42244;SDS011;27912;51.828;5.688;2023-11-21T08:51:21;70.38;;;27.52;;
42244;SDS011;27912;51.828;5.688;2023-11-21T08:53:47;51.85;;;26.52;;
42244;SDS011;27912;51.828;5.688;2023-11-21T08:56:13;69.68;;;27.33;;
42244;SDS011;27912;51.828;5.688;2023-11-21T08:58:39;64.70;;;28.63;;
42244;SDS011;27912;51.828;5.688;2023-11-21T09:01:05;62.97;;;29.20;;
42244;SDS011;27912;51.828;5.688;2023-11-21T09:03:32;65.68;;;28.80;;
42244;SDS011;27912;51.828;5.688;2023-11-21T09:05:59;56.05;;;26.20;;
42244;SDS011;27912;51.828;5.688;2023-11-21T09:08:25;61.28;;;27.38;;
42244;SDS011;27912;51.828;5.688;2023-11-21T09:10:50;63.22;;;27.77;;
42244;SDS011;27912;51.828;5.688;2023-11-21T09:13:17;66.43;;;28.98;;
42244;SDS011;27912;51.828;5.688;2023-11-21T09:15:43;62.45;;;26.98;;
42244;SDS011;27912;51.828;5.688;2023-11-21T09:18:11;69.95;;;29.02;;
42244;SDS011;27912;51.828;5.688;2023-11-21T09:20:40;58.38;;;28.45;;
42244;SDS011;27912;51.828;5.688;2023-11-21T09:23:07;67.07;;;27.98;;
42244;SDS011;27912;51.828;5.688;2023-11-21T09:25:33;60.80;;;27.30;;
42244;SDS011;27912;51.828;5.688;2023-11-21T09:27:59;65.38;;;28.90;;
42244;SDS011;27912;51.828;5.688;2023-11-21T09:30:24;66.82;;;27.80;;
42244;SDS011;27912;51.828;5.688;2023-11-21T09:32:50;61.00;;;28.08;;
42244;SDS011;27912;51.828;5.688;2023-11-21T09:35:17;65.75;;;28.40;;
42244;SDS011;27912;51.828;5.688;2023-11-21T09:37:45;62.65;;;27.00;;
42244;SDS011;27912;51.828;5.688;2023-11-21T09:40:11;67.07;;;28.90;;
42244;SDS011;27912;51.828;5.688;2023-11-21T09:42:38;62.10;;;27.77;;
42244;SDS011;27912;51.828;5.688;2023-11-21T09:45:27;71.40;;;30.23;;
42244;SDS011;27912;51.828;5.688;2023-11-21T09:47:54;81.95;;;29.60;;
42244;SDS011;27912;51.828;5.688;2023-11-21T09:50:20;84.95;;;30.80;;
42244;SDS011;27912;51.828;5.688;2023-11-21T09:55:38;75.32;;;29.13;;
42244;SDS011;27912;51.828;5.688;2023-11-21T09:58:06;72.60;;;28.85;;
42244;SDS011;27912;51.828;5.688;2023-11-21T10:00:33;75.88;;;30.40;;
42244;SDS011;27912;51.828;5.688;2023-11-21T10:02:59;91.00;;;33.08;;
42244;SDS011;27912;51.828;5.688;2023-11-21T10:05:27;91.28;;;32.60;;
42244;SDS011;27912;51.828;5.688;2023-11-21T10:07:53;106.25;;;32.95;;
42244;SDS011;27912;51.828;5.688;2023-11-21T10:10:22;76.30;;;30.13;;
42244;SDS011;27912;51.828;5.688;2023-11-21T10:12:50;107.70;;;29.90;;
42244;SDS011;27912;51.828;5.688;2023-11-21T10:15:23;69.78;;;29.48;;
42244;SDS011;27912;51.828;5.688;2023-11-21T10:17:52;97.47;;;29.63;;
42244;SDS011;27912;51.828;5.688;2023-11-21T10:20:20;77.93;;;30.75;;
42244;SDS011;27912;51.828;5.688;2023-11-21T10:22:46;125.05;;;32.50;;
42244;SDS011;27912;51.828;5.688;2023-11-21T10:25:12;175.43;;;36.53;;
42244;SDS011;27912;51.828;5.688;2023-11-21T10:27:41;160.65;;;33.60;;
42244;SDS011;27912;51.828;5.688;2023-11-21T10:30:08;80.22;;;32.17;;
42244;SDS011;27912;51.828;5.688;2023-11-21T10:32:37;99.10;;;34.13;;
42244;SDS011;27912;51.828;5.688;2023-11-21T10:35:05;75.72;;;32.22;;
42244;SDS011;27912;51.828;5.688;2023-11-21T10:37:41;72.93;;;31.23;;
42244;SDS011;27912;51.828;5.688;2023-11-21T10:40:11;80.60;;;30.40;;
42244;SDS011;27912;51.828;5.688;2023-11-21T10:42:40;62.30;;;27.25;;
42244;SDS011;27912;51.828;5.688;2023-11-21T10:45:07;66.30;;;26.52;;
42244;SDS011;27912;51.828;5.688;2023-11-21T10:47:39;63.72;;;26.67;;
42244;SDS011;27912;51.828;5.688;2023-11-21T10:50:07;57.45;;;25.20;;
42244;SDS011;27912;51.828;5.688;2023-11-21T10:52:37;62.92;;;25.23;;
42244;SDS011;27912;51.828;5.688;2023-11-21T10:55:25;55.08;;;23.58;;
42244;SDS011;27912;51.828;5.688;2023-11-21T10:57:52;58.60;;;25.30;;
42244;SDS011;27912;51.828;5.688;2023-11-21T11:00:19;57.72;;;25.55;;
42244;SDS011;27912;51.828;5.688;2023-11-21T11:02:46;60.40;;;25.02;;
42244;SDS011;27912;51.828;5.688;2023-11-21T11:05:15;67.00;;;28.80;;
42244;SDS011;27912;51.828;5.688;2023-11-21T11:07:43;66.78;;;25.77;;
42244;SDS011;27912;51.828;5.688;2023-11-21T11:10:09;53.42;;;24.33;;
42244;SDS011;27912;51.828;5.688;2023-11-21T11:12:39;54.38;;;23.50;;
42244;SDS011;27912;51.828;5.688;2023-11-21T11:15:07;60.42;;;25.48;;
42244;SDS011;27912;51.828;5.688;2023-11-21T11:17:34;54.65;;;23.40;;
42244;SDS011;27912;51.828;5.688;2023-11-21T11:20:03;49.47;;;22.45;;
42244;SDS011;27912;51.828;5.688;2023-11-21T11:28:40;38.08;;;18.25;;
42244;SDS011;27912;51.828;5.688;2023-11-21T11:31:37;45.17;;;18.17;;
42244;SDS011;27912;51.828;5.688;2023-11-21T11:36:59;45.88;;;18.75;;
42244;SDS011;27912;51.828;5.688;2023-11-21T11:42:01;64.75;;;20.35;;
42244;SDS011;27912;51.828;5.688;2023-11-21T11:47:14;42.63;;;19.75;;
42244;SDS011;27912;51.828;5.688;2023-11-21T11:50:09;43.35;;;19.33;;
42244;SDS011;27912;51.828;5.688;2023-11-21T11:55:19;45.67;;;19.55;;
42244;SDS011;27912;51.828;5.688;2023-11-21T11:57:50;46.67;;;21.38;;
42244;SDS011;27912;51.828;5.688;2023-11-21T12:00:17;44.28;;;20.98;;
42244;SDS011;27912;51.828;5.688;2023-11-21T12:02:45;45.67;;;21.73;;
42244;SDS011;27912;51.828;5.688;2023-11-21T12:05:15;49.45;;;20.50;;
42244;SDS011;27912;51.828;5.688;2023-11-21T12:10:18;44.35;;;20.85;;
42244;SDS011;27912;51.828;5.688;2023-11-21T12:12:46;43.95;;;20.70;;
42244;SDS011;27912;51.828;5.688;2023-11-21T12:15:13;36.88;;;18.02;;
42244;SDS011;27912;51.828;5.688;2023-11-21T12:17:39;36.70;;;18.08;;
42244;SDS011;27912;51.828;5.688;2023-11-21T12:20:07;36.58;;;17.40;;
42244;SDS011;27912;51.828;5.688;2023-11-21T12:22:40;30.45;;;16.60;;
42244;SDS011;27912;51.828;5.688;2023-11-21T12:25:08;35.65;;;16.60;;
42244;SDS011;27912;51.828;5.688;2023-11-21T12:27:33;32.33;;;15.63;;
42244;SDS011;27912;51.828;5.688;2023-11-21T12:30:00;34.47;;;14.52;;
42244;SDS011;27912;51.828;5.688;2023-11-21T12:32:25;32.60;;;14.63;;
42244;SDS011;27912;51.828;5.688;2023-11-21T12:34:51;31.50;;;14.52;;
42244;SDS011;27912;51.828;5.688;2023-11-21T12:37:17;33.05;;;14.50;;
42244;SDS011;27912;51.828;5.688;2023-11-21T12:39:43;33.55;;;12.98;;
42244;SDS011;27912;51.828;5.688;2023-11-21T12:42:09;28.70;;;12.68;;
42244;SDS011;27912;51.828;5.688;2023-11-21T12:44:35;24.98;;;11.68;;
42244;SDS011;27912;51.828;5.688;2023-11-21T12:47:02;24.85;;;11.88;;
42244;SDS011;27912;51.828;5.688;2023-11-21T12:49:28;23.15;;;10.60;;
42244;SDS011;27912;51.828;5.688;2023-11-21T12:51:54;22.80;;;10.90;;
42244;SDS011;27912;51.828;5.688;2023-11-21T12:54:19;21.80;;;10.40;;
42244;SDS011;27912;51.828;5.688;2023-11-21T12:56:45;18.48;;;8.90;;
42244;SDS011;27912;51.828;5.688;2023-11-21T12:59:14;16.92;;;8.82;;
42244;SDS011;27912;51.828;5.688;2023-11-21T13:01:41;20.13;;;8.65;;
42244;SDS011;27912;51.828;5.688;2023-11-21T13:04:08;15.20;;;7.72;;
42244;SDS011;27912;51.828;5.688;2023-11-21T13:06:35;16.33;;;9.10;;
42244;SDS011;27912;51.828;5.688;2023-11-21T13:09:06;16.55;;;9.35;;
42244;SDS011;27912;51.828;5.688;2023-11-21T13:11:35;19.90;;;9.40;;
42244;SDS011;27912;51.828;5.688;2023-11-21T13:14:01;17.95;;;8.98;;
42244;SDS011;27912;51.828;5.688;2023-11-21T13:16:28;17.63;;;9.75;;
42244;SDS011;27912;51.828;5.688;2023-11-21T13:18:55;15.73;;;8.60;;
42244;SDS011;27912;51.828;5.688;2023-11-21T13:21:20;18.75;;;9.85;;
42244;SDS011;27912;51.828;5.688;2023-11-21T13:23:47;15.52;;;9.20;;
42244;SDS011;27912;51.828;5.688;2023-11-21T13:26:16;18.35;;;9.60;;
42244;SDS011;27912;51.828;5.688;2023-11-21T13:28:41;21.50;;;10.23;;
42244;SDS011;27912;51.828;5.688;2023-11-21T13:31:11;22.75;;;11.30;;
42244;SDS011;27912;51.828;5.688;2023-11-21T13:33:56;22.25;;;11.43;;
42244;SDS011;27912;51.828;5.688;2023-11-21T13:36:29;20.98;;;10.63;;
42244;SDS011;27912;51.828;5.688;2023-11-21T13:38:57;18.40;;;9.52;;
42244;SDS011;27912;51.828;5.688;2023-11-21T13:41:23;17.55;;;9.50;;
42244;SDS011;27912;51.828;5.688;2023-11-21T13:43:55;20.60;;;9.83;;
42244;SDS011;27912;51.828;5.688;2023-11-21T13:46:31;17.25;;;9.23;;
42244;SDS011;27912;51.828;5.688;2023-11-21T13:49:02;17.48;;;9.43;;
42244;SDS011;27912;51.828;5.688;2023-11-21T13:51:27;19.00;;;10.23;;
42244;SDS011;27912;51.828;5.688;2023-11-21T13:54:04;19.35;;;9.80;;
42244;SDS011;27912;51.828;5.688;2023-11-21T13:56:34;20.88;;;11.15;;
42244;SDS011;27912;51.828;5.688;2023-11-21T13:59:00;25.08;;;12.20;;
42244;SDS011;27912;51.828;5.688;2023-11-21T14:01:34;26.02;;;13.50;;
42244;SDS011;27912;51.828;5.688;2023-11-21T14:04:18;26.75;;;14.18;;
42244;SDS011;27912;51.828;5.688;2023-11-21T14:06:47;26.00;;;14.68;;
42244;SDS011;27912;51.828;5.688;2023-11-21T14:09:17;28.05;;;14.70;;
42244;SDS011;27912;51.828;5.688;2023-11-21T14:11:54;29.13;;;15.38;;
42244;SDS011;27912;51.828;5.688;2023-11-21T14:14:22;33.63;;;17.17;;
42244;SDS011;27912;51.828;5.688;2023-11-21T14:16:55;29.40;;;15.52;;
42244;SDS011;27912;51.828;5.688;2023-11-21T14:19:22;29.95;;;16.60;;
42244;SDS011;27912;51.828;5.688;2023-11-21T14:21:52;34.60;;;17.08;;
42244;SDS011;27912;51.828;5.688;2023-11-21T14:24:18;32.00;;;16.23;;
42244;SDS011;27912;51.828;5.688;2023-11-21T14:26:44;35.72;;;17.20;;
42244;SDS011;27912;51.828;5.688;2023-11-21T14:29:15;31.02;;;16.35;;
42244;SDS011;27912;51.828;5.688;2023-11-21T14:31:44;32.85;;;15.93;;
42244;SDS011;27912;51.828;5.688;2023-11-21T14:34:10;28.83;;;15.18;;
42244;SDS011;27912;51.828;5.688;2023-11-21T14:36:37;25.83;;;14.82;;
42244;SDS011;27912;51.828;5.688;2023-11-21T14:39:04;35.85;;;17.80;;
42244;SDS011;27912;51.828;5.688;2023-11-21T14:41:36;34.05;;;16.20;;
42244;SDS011;27912;51.828;5.688;2023-11-21T14:44:03;32.00;;;15.73;;